Wind From: 11-12-2017 12:03 Until: 12-12-2017 06:00 warning for: Wind Level: Orange info button

Power and phone distribution networks may be disrupted for relatively long periods., Roofs and chimneys can be damaged. , Tree branches may break. , Vehicles can be deported. , Traffic may be disrupted, particularly on secondary roads in forest areas. Limit your trips. , Limit your speed in highway driving, especially if you drive a vehicle or hitch sensitive to wind. , Do not go for walks in forests or along the coast., In town, be vigilant against possible falling objects., Do not work on roofs and do not touch any electrical line fallen on the ground., Store or secure sensitive objects to wind or likely to be damaged., Always install power generators outside buildings. 


Meteo18 Weather Cam more information Meteo18 Weather Cam


Thunder radar more information blitzortung!


Rain radar more information rain snow radar


Visit our other weather sites:

Template documentation
and downloads

And another site



Weather Underground History page Text

Daily Summary for June 21, 2016 Units:  Metric    English   Both
« Previous Day
Next Day »
Daily Weekly Monthly Yearly Custom
  High: Low: Average:
Temperature: 23.9 °C 14.2 °C 18.2 °C
Dew Point: 19.7 °C 13.7 °C 16.6 °C
Humidity: 98 % 76 % 91 %
Wind Speed: 6.4 km/h 0.0 km/h 1.4 km/h
Wind Gust: 12.9 km/h - -
Wind:- - WSW
Pressure: 1021.6 hPa 1019.9 hPa -
Precipitation: 1.0 mm    
Historical Graphs
 
 
Tabular Data for June 21, 2016
Time Temperature Dew Point Pressure Wind Wind Speed Wind Gust Humidity Rainfall Rate (Hourly)
00:02 15.8 °C 15.2 °C 1020.5 hPa WSW 1.6 km/h 8.0 km/h 96 % 0.5 mm
00:07 15.8 °C 15.2 °C 1020.5 hPa WSW 1.6 km/h 6.4 km/h 96 % 0.5 mm
00:12 15.8 °C 15.2 °C 1020.5 hPa Calm   6.4 km/h 96 % 0.5 mm
00:17 15.8 °C 15.3 °C 1020.5 hPa Calm   6.4 km/h 97 % 0.5 mm
00:22 15.8 °C 15.3 °C 1020.5 hPa West 1.6 km/h 6.4 km/h 97 % 0.5 mm
00:32 15.8 °C 15.3 °C 1020.5 hPa WSW 1.6 km/h 6.4 km/h 97 % 0.5 mm
00:42 15.8 °C 15.3 °C 1020.5 hPa Calm   6.4 km/h 97 % 0.3 mm
00:47 15.8 °C 15.3 °C 1020.5 hPa West 1.6 km/h 6.4 km/h 97 % 0.3 mm
00:52 15.7 °C 15.2 °C 1020.5 hPa WSW 1.6 km/h 9.7 km/h 97 % 0.5 mm
00:57 15.7 °C 15.2 °C 1020.5 hPa Calm   9.7 km/h 97 % 0.3 mm
01:02 15.7 °C 15.1 °C 1020.5 hPa WNW 1.6 km/h 9.7 km/h 96 % 0.3 mm
01:12 15.6 °C 15.1 °C 1020.5 hPa SW 1.6 km/h 4.8 km/h 97 % 0.3 mm
01:17 15.6 °C 15.1 °C 1020.5 hPa SW 4.8 km/h 6.4 km/h 97 % 0.3 mm
01:22 15.6 °C 15.0 °C 1020.5 hPa Calm   8.0 km/h 96 % 0.3 mm
01:27 15.5 °C 14.9 °C 1020.5 hPa Calm   8.0 km/h 96 % 0.3 mm
01:32 15.4 °C 14.9 °C 1020.5 hPa WSW 1.6 km/h 8.0 km/h 97 % 0.3 mm
01:37 15.4 °C 14.9 °C 1020.5 hPa Calm   6.4 km/h 97 % 0.3 mm
01:42 15.4 °C 14.9 °C 1020.5 hPa Calm   4.8 km/h 97 % 0.3 mm
01:47 15.4 °C 14.9 °C 1020.5 hPa WSW 3.2 km/h 9.7 km/h 97 % 0.0 mm
01:52 15.3 °C 14.8 °C 1020.5 hPa WSW 1.6 km/h 9.7 km/h 97 % 0.0 mm
01:57 15.3 °C 14.8 °C 1020.5 hPa North 1.6 km/h 9.7 km/h 97 % 0.0 mm
02:07 15.3 °C 14.7 °C 1020.5 hPa Calm   6.4 km/h 96 % 0.0 mm
02:12 15.3 °C 14.7 °C 1020.5 hPa Calm   4.8 km/h 96 % 0.0 mm
02:17 15.3 °C 14.8 °C 1020.5 hPa Calm   6.4 km/h 97 % 0.0 mm
02:22 15.2 °C 14.7 °C 1020.5 hPa Calm   6.4 km/h 97 % 0.0 mm
02:27 15.2 °C 14.7 °C 1020.5 hPa Calm   6.4 km/h 97 % 0.0 mm
02:32 15.2 °C 14.7 °C 1020.5 hPa Calm   3.2 km/h 97 % 0.0 mm
02:37 15.1 °C 14.6 °C 1020.5 hPa Calm   4.8 km/h 97 % 0.3 mm
02:42 15.1 °C 14.5 °C 1020.2 hPa SSE 3.2 km/h 6.4 km/h 96 % 0.3 mm
02:47 15.0 °C 14.4 °C 1020.2 hPa WSW 1.6 km/h 6.4 km/h 96 % 0.3 mm
02:57 14.9 °C 14.3 °C 1020.5 hPa Calm   6.4 km/h 96 % 0.3 mm
03:07 14.9 °C 14.3 °C 1020.5 hPa Calm   4.8 km/h 96 % 0.3 mm
03:12 14.8 °C 14.2 °C 1020.5 hPa WSW 3.2 km/h 6.4 km/h 96 % 0.3 mm
03:17 14.8 °C 14.2 °C 1020.2 hPa West 1.6 km/h 6.4 km/h 96 % 0.3 mm
03:22 14.7 °C 14.1 °C 1020.2 hPa Calm   9.7 km/h 96 % 0.3 mm
03:32 14.6 °C 14.0 °C 1019.9 hPa West 3.2 km/h 9.7 km/h 96 % 0.3 mm
03:37 14.6 °C 14.0 °C 1020.2 hPa WSW 1.6 km/h 9.7 km/h 96 % 0.3 mm
03:42 14.6 °C 14.1 °C 1020.2 hPa West 1.6 km/h 9.7 km/h 97 % 0.3 mm
03:47 14.6 °C 14.1 °C 1020.2 hPa WSW 3.2 km/h 9.7 km/h 97 % 0.3 mm
03:52 14.6 °C 14.1 °C 1020.2 hPa SW 3.2 km/h 6.4 km/h 97 % 0.3 mm
03:57 14.6 °C 14.1 °C 1020.2 hPa Calm   6.4 km/h 97 % 0.3 mm
04:02 14.6 °C 14.1 °C 1020.2 hPa Calm   6.4 km/h 97 % 0.3 mm
04:07 14.6 °C 14.1 °C 1020.2 hPa Calm   6.4 km/h 97 % 0.5 mm
04:12 14.5 °C 14.0 °C 1020.2 hPa WSW 1.6 km/h 3.2 km/h 97 % 0.5 mm
04:17 14.5 °C 14.0 °C 1020.2 hPa Calm   3.2 km/h 97 % 0.5 mm
04:22 14.5 °C 14.0 °C 1020.2 hPa Calm   3.2 km/h 97 % 0.5 mm
04:27 14.5 °C 14.0 °C 1020.2 hPa WSW 1.6 km/h 6.4 km/h 97 % 0.3 mm
04:37 14.4 °C 13.9 °C 1020.2 hPa Calm   6.4 km/h 97 % 0.3 mm
04:42 14.4 °C 13.9 °C 1019.9 hPa WSW 4.8 km/h 6.4 km/h 97 % 0.3 mm
04:47 14.3 °C 13.8 °C 1019.9 hPa West 3.2 km/h 9.7 km/h 97 % 0.3 mm
04:52 14.3 °C 13.8 °C 1019.9 hPa Calm   9.7 km/h 97 % 0.3 mm
05:02 14.3 °C 13.8 °C 1019.9 hPa Calm   9.7 km/h 97 % 0.3 mm
05:12 14.3 °C 13.8 °C 1019.9 hPa West 3.2 km/h 9.7 km/h 97 % 0.0 mm
05:22 14.3 °C 13.8 °C 1020.2 hPa Calm   6.4 km/h 97 % 0.0 mm
05:32 14.2 °C 13.7 °C 1019.9 hPa Calm   6.4 km/h 97 % 0.0 mm
05:42 14.2 °C 13.7 °C 1019.9 hPa West 1.6 km/h 6.4 km/h 97 % 0.0 mm
05:52 14.2 °C 13.7 °C 1020.2 hPa Calm   8.0 km/h 97 % 0.0 mm
06:02 14.3 °C 13.8 °C 1020.2 hPa WSW 1.6 km/h 8.0 km/h 97 % 0.0 mm
06:12 14.3 °C 13.8 °C 1020.2 hPa West 3.2 km/h 6.4 km/h 97 % 0.0 mm
06:17 14.3 °C 13.8 °C 1020.2 hPa West 1.6 km/h 6.4 km/h 97 % 0.0 mm
06:22 14.3 °C 13.8 °C 1020.2 hPa Calm   6.4 km/h 97 % 0.0 mm
06:42 14.3 °C 13.8 °C 1020.2 hPa Calm   6.4 km/h 97 % 0.0 mm
06:47 14.3 °C 13.8 °C 1020.2 hPa SW 3.2 km/h 9.7 km/h 97 % 0.0 mm
06:52 14.4 °C 13.9 °C 1020.2 hPa Calm   9.7 km/h 97 % 0.0 mm
07:02 14.4 °C 13.9 °C 1020.2 hPa SW 3.2 km/h 9.7 km/h 97 % 0.0 mm
07:12 14.4 °C 13.9 °C 1020.2 hPa WSW 1.6 km/h 6.4 km/h 97 % 0.0 mm
07:17 14.5 °C 14.0 °C 1020.2 hPa SW 1.6 km/h 8.0 km/h 97 % 0.0 mm
07:22 14.6 °C 14.3 °C 1020.2 hPa Calm   8.0 km/h 98 % 0.0 mm
07:32 14.7 °C 14.4 °C 1020.2 hPa WSW 3.2 km/h 8.0 km/h 98 % 0.0 mm
07:42 14.7 °C 14.2 °C 1020.2 hPa SW 3.2 km/h 8.0 km/h 97 % 0.3 mm
07:52 14.8 °C 14.3 °C 1020.2 hPa Calm   8.0 km/h 97 % 0.3 mm
08:02 14.8 °C 14.3 °C 1020.5 hPa West 1.6 km/h 9.7 km/h 97 % 0.3 mm
08:12 14.8 °C 14.3 °C 1020.5 hPa WSW 1.6 km/h 8.0 km/h 97 % 0.3 mm
08:17 14.8 °C 14.3 °C 1020.5 hPa WSW 3.2 km/h 8.0 km/h 97 % 0.3 mm
08:22 14.8 °C 14.3 °C 1020.5 hPa Calm   8.0 km/h 97 % 0.3 mm
08:32 14.9 °C 14.4 °C 1020.5 hPa WSW 1.6 km/h 9.7 km/h 97 % 0.3 mm
08:42 15.0 °C 14.5 °C 1020.5 hPa Calm   9.7 km/h 97 % 0.0 mm
08:47 15.1 °C 14.6 °C 1020.5 hPa SW 1.6 km/h 8.0 km/h 97 % 0.0 mm
08:52 15.2 °C 14.7 °C 1020.5 hPa WSW 3.2 km/h 8.0 km/h 97 % 0.0 mm
09:02 15.3 °C 14.8 °C 1020.5 hPa WSW 3.2 km/h 8.0 km/h 97 % 0.0 mm
09:12 15.3 °C 14.8 °C 1020.5 hPa West 6.4 km/h 8.0 km/h 97 % 0.0 mm
09:22 15.3 °C 14.8 °C 1020.9 hPa WSW 3.2 km/h 8.0 km/h 97 % 0.0 mm
09:32 15.4 °C 14.9 °C 1020.9 hPa WSW 4.8 km/h 9.7 km/h 97 % 0.0 mm
09:42 15.5 °C 15.0 °C 1020.9 hPa WSW 4.8 km/h 6.4 km/h 97 % 0.0 mm
09:52 15.6 °C 15.1 °C 1020.9 hPa WSW 3.2 km/h 8.0 km/h 97 % 0.0 mm
09:57 15.6 °C 15.1 °C 1020.9 hPa WSW 4.8 km/h 8.0 km/h 97 % 0.0 mm
10:02 15.6 °C 15.1 °C 1021.2 hPa West 1.6 km/h 9.7 km/h 97 % 0.0 mm
10:07 15.7 °C 15.2 °C 1021.2 hPa WSW 3.2 km/h 9.7 km/h 97 % 0.0 mm
10:12 15.8 °C 15.3 °C 1021.2 hPa WNW 1.6 km/h 9.7 km/h 97 % 0.0 mm
10:17 15.9 °C 15.4 °C 1021.2 hPa WSW 4.8 km/h 8.0 km/h 97 % 0.0 mm
10:22 16.0 °C 15.5 °C 1021.2 hPa SW 1.6 km/h 8.0 km/h 97 % 0.0 mm
10:32 16.1 °C 15.6 °C 1021.2 hPa SSW 3.2 km/h 11.3 km/h 97 % 0.0 mm
10:37 16.2 °C 15.6 °C 1021.2 hPa Calm   11.3 km/h 96 % 0.0 mm
10:42 16.3 °C 15.7 °C 1021.2 hPa WSW 4.8 km/h 11.3 km/h 96 % 0.0 mm
10:47 16.3 °C 15.7 °C 1021.2 hPa WSW 1.6 km/h 11.3 km/h 96 % 0.0 mm
10:52 16.4 °C 15.8 °C 1021.2 hPa WSW 6.4 km/h 9.7 km/h 96 % 0.0 mm
10:57 16.3 °C 15.7 °C 1021.2 hPa SW 3.2 km/h 9.7 km/h 96 % 0.0 mm
11:02 16.4 °C 15.8 °C 1021.2 hPa WSW 1.6 km/h 9.7 km/h 96 % 0.0 mm
11:07 16.6 °C 15.8 °C 1021.6 hPa WSW 1.6 km/h 9.7 km/h 95 % 0.0 mm
11:12 16.7 °C 15.9 °C 1021.6 hPa WSW 1.6 km/h 9.7 km/h 95 % 0.0 mm
11:17 16.8 °C 16.0 °C 1021.6 hPa West 1.6 km/h 8.0 km/h 95 % 0.0 mm
11:22 16.9 °C 16.1 °C 1021.6 hPa WSW 3.2 km/h 8.0 km/h 95 % 0.0 mm
11:32 17.2 °C 16.4 °C 1021.2 hPa WSW 4.8 km/h 9.7 km/h 95 % 0.0 mm
11:37 17.3 °C 16.5 °C 1021.2 hPa WSW 4.8 km/h 9.7 km/h 95 % 0.0 mm
11:42 17.2 °C 16.2 °C 1021.6 hPa SSW 1.6 km/h 6.4 km/h 94 % 0.0 mm
11:47 17.2 °C 16.2 °C 1021.2 hPa SW 3.2 km/h 8.0 km/h 94 % 0.0 mm
11:52 17.3 °C 16.3 °C 1021.2 hPa SSW 1.6 km/h 8.0 km/h 94 % 0.0 mm
12:02 17.6 °C 16.5 °C 1021.2 hPa WSW 3.2 km/h 11.3 km/h 93 % 0.0 mm
12:12 17.7 °C 16.6 °C 1021.2 hPa SW 3.2 km/h 8.0 km/h 93 % 0.0 mm
12:17 17.7 °C 16.6 °C 1021.2 hPa WSW 4.8 km/h 8.0 km/h 93 % 0.0 mm
12:22 17.8 °C 16.7 °C 1021.2 hPa SW 6.4 km/h 8.0 km/h 93 % 0.0 mm
12:27 17.9 °C 16.8 °C 1021.2 hPa West 1.6 km/h 8.0 km/h 93 % 0.0 mm
12:32 17.9 °C 16.6 °C 1021.2 hPa WSW 3.2 km/h 8.0 km/h 92 % 0.0 mm
12:42 18.1 °C 16.9 °C 1021.2 hPa Calm   8.0 km/h 93 % 0.0 mm
12:47 18.2 °C 17.0 °C 1021.2 hPa SW 4.8 km/h 11.3 km/h 93 % 0.0 mm
12:52 18.3 °C 17.0 °C 1021.2 hPa WSW 3.2 km/h 12.9 km/h 92 % 0.0 mm
13:02 18.6 °C 17.1 °C 1021.2 hPa WSW 3.2 km/h 12.9 km/h 91 % 0.0 mm
13:12 19.2 °C 17.5 °C 1021.2 hPa SW 1.6 km/h 11.3 km/h 90 % 0.0 mm
13:17 19.6 °C 17.7 °C 1021.2 hPa WSW 1.6 km/h 11.3 km/h 89 % 0.0 mm
13:22 19.8 °C 17.6 °C 1021.2 hPa West 1.6 km/h 9.7 km/h 87 % 0.0 mm
13:27 19.9 °C 17.9 °C 1021.2 hPa SW 3.2 km/h 9.7 km/h 88 % 0.0 mm
13:32 19.9 °C 17.7 °C 1021.2 hPa Calm   11.3 km/h 87 % 0.0 mm
13:42 19.9 °C 17.9 °C 1020.9 hPa WSW 4.8 km/h 11.3 km/h 88 % 0.0 mm
13:47 20.0 °C 17.8 °C 1021.2 hPa SW 4.8 km/h 11.3 km/h 87 % 0.0 mm
13:52 20.1 °C 17.9 °C 1021.2 hPa WSW 1.6 km/h 11.3 km/h 87 % 0.0 mm
13:57 20.4 °C 18.2 °C 1021.2 hPa Calm   8.0 km/h 87 % 0.0 mm
14:02 20.5 °C 18.1 °C 1020.9 hPa WSW 4.8 km/h 8.0 km/h 86 % 0.0 mm
14:12 21.3 °C 18.7 °C 1020.9 hPa SW 1.6 km/h 12.9 km/h 85 % 0.0 mm
14:17 21.6 °C 19.2 °C 1020.9 hPa West 4.8 km/h 12.9 km/h 86 % 0.0 mm
14:22 21.7 °C 18.5 °C 1020.9 hPa WSW 4.8 km/h 8.0 km/h 82 % 0.0 mm
14:27 21.7 °C 19.1 °C 1021.2 hPa Calm   8.0 km/h 85 % 0.0 mm
14:32 22.0 °C 19.0 °C 1021.2 hPa WSW 4.8 km/h 8.0 km/h 83 % 0.0 mm
14:37 21.9 °C 18.7 °C 1021.2 hPa SSW 3.2 km/h 8.0 km/h 82 % 0.0 mm
14:42 21.9 °C 18.5 °C 1021.2 hPa WSW 1.6 km/h 9.7 km/h 81 % 0.0 mm
14:47 21.7 °C 18.5 °C 1021.2 hPa Calm   9.7 km/h 82 % 0.0 mm
14:52 21.7 °C 18.5 °C 1021.2 hPa Calm   9.7 km/h 82 % 0.0 mm
14:57 21.5 °C 18.5 °C 1021.2 hPa SW 4.8 km/h 9.7 km/h 83 % 0.0 mm
15:02 21.3 °C 18.3 °C 1021.2 hPa Calm   6.4 km/h 83 % 0.0 mm
15:12 21.4 °C 18.6 °C 1021.2 hPa Calm   8.0 km/h 84 % 0.0 mm
15:17 21.6 °C 18.6 °C 1021.2 hPa WSW 1.6 km/h 8.0 km/h 83 % 0.0 mm
15:22 21.9 °C 19.1 °C 1020.9 hPa WSW 3.2 km/h 6.4 km/h 84 % 0.0 mm
15:32 21.8 °C 18.6 °C 1020.9 hPa WSW 4.8 km/h 6.4 km/h 82 % 0.0 mm
15:37 21.9 °C 18.9 °C 1020.9 hPa WSW 4.8 km/h 9.7 km/h 83 % 0.0 mm
15:42 22.2 °C 19.0 °C 1021.2 hPa WSW 3.2 km/h 9.7 km/h 82 % 0.0 mm
15:47 22.2 °C 19.0 °C 1020.9 hPa West 1.6 km/h 9.7 km/h 82 % 0.0 mm
15:52 22.3 °C 19.1 °C 1020.9 hPa SW 3.2 km/h 8.0 km/h 82 % 0.0 mm
15:57 22.4 °C 18.8 °C 1020.9 hPa WSW 1.6 km/h 8.0 km/h 80 % 0.0 mm
16:02 22.2 °C 18.8 °C 1020.9 hPa West 1.6 km/h 8.0 km/h 81 % 0.0 mm
16:12 22.1 °C 18.9 °C 1021.2 hPa Calm   6.4 km/h 82 % 0.0 mm
16:17 22.4 °C 19.4 °C 1020.9 hPa Calm   6.4 km/h 83 % 0.0 mm
16:22 22.6 °C 19.2 °C 1020.9 hPa Calm   6.4 km/h 81 % 0.0 mm
16:32 23.1 °C 19.3 °C 1020.9 hPa WSW 1.6 km/h 4.8 km/h 79 % 0.0 mm
16:42 22.9 °C 18.9 °C 1020.9 hPa Calm   11.3 km/h 78 % 0.0 mm
16:47 22.9 °C 19.1 °C 1020.9 hPa Calm   11.3 km/h 79 % 0.0 mm
16:52 22.7 °C 18.7 °C 1021.2 hPa SW 3.2 km/h 11.3 km/h 78 % 0.0 mm
16:57 22.7 °C 19.3 °C 1020.9 hPa WSW 1.6 km/h 8.0 km/h 81 % 0.0 mm
17:02 23.1 °C 19.7 °C 1020.9 hPa Calm   8.0 km/h 81 % 0.0 mm
17:12 23.9 °C 19.4 °C 1020.9 hPa West 1.6 km/h 4.8 km/h 76 % 0.0 mm
17:17 23.7 °C 19.6 °C 1020.9 hPa Calm   4.8 km/h 78 % 0.0 mm
17:22 23.3 °C 19.0 °C 1021.2 hPa SW 1.6 km/h 4.8 km/h 77 % 0.0 mm
17:27 23.0 °C 19.2 °C 1020.9 hPa Calm   4.8 km/h 79 % 0.0 mm
17:32 22.9 °C 19.1 °C 1020.9 hPa WSW 1.6 km/h 4.8 km/h 79 % 0.0 mm
17:37 22.8 °C 19.2 °C 1020.9 hPa Calm   6.4 km/h 80 % 0.0 mm
17:42 22.7 °C 19.1 °C 1020.9 hPa Calm   6.4 km/h 80 % 0.0 mm
17:47 22.6 °C 19.0 °C 1021.2 hPa Calm   6.4 km/h 80 % 0.0 mm
17:52 22.4 °C 18.8 °C 1021.2 hPa Calm   1.6 km/h 80 % 0.0 mm
18:02 22.3 °C 18.9 °C 1021.2 hPa Calm   1.6 km/h 81 % 0.0 mm
18:12 22.3 °C 19.1 °C 1020.9 hPa Calm   1.6 km/h 82 % 0.0 mm
18:17 22.3 °C 18.9 °C 1020.9 hPa Calm   1.6 km/h 81 % 0.0 mm
18:22 22.4 °C 19.2 °C 1021.2 hPa Calm   1.6 km/h 82 % 0.0 mm
18:27 22.5 °C 18.9 °C 1020.9 hPa Calm   1.6 km/h 80 % 0.0 mm
18:32 22.6 °C 19.0 °C 1020.9 hPa Calm   3.2 km/h 80 % 0.0 mm
18:42 22.7 °C 19.1 °C 1020.9 hPa Calm   1.6 km/h 80 % 0.0 mm
18:47 22.8 °C 19.0 °C 1020.9 hPa Calm   1.6 km/h 79 % 0.0 mm
18:52 22.8 °C 18.8 °C 1020.9 hPa Calm   1.6 km/h 78 % 0.0 mm
18:57 22.7 °C 18.9 °C 1020.9 hPa Calm   1.6 km/h 79 % 0.0 mm
19:02 22.6 °C 19.0 °C 1020.9 hPa Calm   1.6 km/h 80 % 0.0 mm
19:12 22.4 °C 19.0 °C 1020.9 hPa Calm   1.6 km/h 81 % 0.0 mm
19:17 22.4 °C 18.8 °C 1020.9 hPa Calm   1.6 km/h 80 % 0.0 mm
19:22 22.4 °C 19.0 °C 1020.9 hPa Calm   1.6 km/h 81 % 0.0 mm
19:32 22.2 °C 18.8 °C 1020.9 hPa Calm   1.6 km/h 81 % 0.0 mm
19:37 22.1 °C 18.9 °C 1020.9 hPa Calm   1.6 km/h 82 % 0.0 mm
19:42 21.9 °C 18.7 °C 1020.9 hPa SW 1.6 km/h 1.6 km/h 82 % 0.0 mm
19:47 21.9 °C 18.9 °C 1020.9 hPa Calm   1.6 km/h 83 % 0.0 mm
19:52 22.0 °C 18.8 °C 1020.9 hPa Calm   1.6 km/h 82 % 0.0 mm
19:57 22.0 °C 19.2 °C 1020.9 hPa Calm   1.6 km/h 84 % 0.0 mm
20:02 22.0 °C 18.8 °C 1020.9 hPa Calm   1.6 km/h 82 % 0.0 mm
20:07 22.0 °C 19.0 °C 1020.9 hPa Calm   1.6 km/h 83 % 0.0 mm
20:12 22.1 °C 19.1 °C 1020.9 hPa Calm     83 % 0.0 mm
20:17 22.1 °C 19.3 °C 1020.9 hPa Calm     84 % 0.0 mm
20:22 22.1 °C 19.3 °C 1020.9 hPa Calm     84 % 0.0 mm
20:32 22.0 °C 19.5 °C 1020.9 hPa Calm     86 % 0.0 mm
20:37 21.9 °C 19.5 °C 1020.9 hPa Calm     86 % 0.0 mm
20:42 21.9 °C 19.6 °C 1020.9 hPa Calm     87 % 0.0 mm
20:47 21.8 °C 19.5 °C 1020.9 hPa Calm     87 % 0.0 mm
20:52 21.7 °C 19.4 °C 1020.9 hPa Calm     87 % 0.0 mm
20:57 21.6 °C 19.5 °C 1020.9 hPa Calm     88 % 0.0 mm
21:02 21.5 °C 19.4 °C 1020.9 hPa Calm     88 % 0.0 mm
21:12 21.3 °C 19.4 °C 1020.9 hPa Calm     89 % 0.0 mm
21:17 21.2 °C 19.3 °C 1020.9 hPa Calm     89 % 0.0 mm
21:22 21.1 °C 19.4 °C 1020.9 hPa Calm     90 % 0.0 mm
21:32 20.9 °C 19.2 °C 1020.9 hPa Calm     90 % 0.0 mm
21:37 20.8 °C 19.1 °C 1020.9 hPa Calm     90 % 0.0 mm
21:47 20.4 °C 18.9 °C 1020.9 hPa Calm     91 % 0.0 mm
21:57 20.1 °C 18.8 °C 1021.2 hPa Calm     92 % 0.0 mm
22:02 19.9 °C 18.6 °C 1021.2 hPa Calm     92 % 0.0 mm
22:12 19.6 °C 18.3 °C 1021.2 hPa Calm     92 % 0.0 mm
22:17 19.3 °C 18.0 °C 1021.2 hPa Calm     92 % 0.0 mm
22:22 19.1 °C 17.9 °C 1021.2 hPa Calm     93 % 0.0 mm
22:27 18.9 °C 17.7 °C 1021.2 hPa Calm     93 % 0.0 mm
22:32 18.7 °C 17.5 °C 1021.2 hPa Calm     93 % 0.0 mm
22:37 18.4 °C 17.2 °C 1021.2 hPa Calm     93 % 0.0 mm
22:47 18.2 °C 17.2 °C 1021.2 hPa Calm     94 % 0.0 mm
22:52 18.1 °C 17.1 °C 1021.2 hPa Calm     94 % 0.0 mm
23:02 17.7 °C 16.7 °C 1021.2 hPa Calm     94 % 0.0 mm
23:12 17.3 °C 16.3 °C 1021.2 hPa Calm     94 % 0.0 mm
23:17 17.3 °C 16.5 °C 1021.2 hPa Calm     95 % 0.0 mm
23:22 17.2 °C 16.4 °C 1021.2 hPa Calm     95 % 0.0 mm
23:32 17.1 °C 16.3 °C 1021.2 hPa Calm     95 % 0.0 mm
23:37 16.9 °C 16.1 °C 1021.2 hPa Calm     95 % 0.0 mm
23:42 16.8 °C 16.0 °C 1021.2 hPa Calm     95 % 0.0 mm
23:47 16.8 °C 16.2 °C 1021.2 hPa Calm     96 % 0.0 mm
23:52 16.7 °C 16.1 °C 1021.6 hPa Calm     96 % 0.0 mm
23:57 16.8 °C 16.2 °C 1021.6 hPa Calm     96 % 0.0 mm
Meteo18
Compliments of Weather Underground - 4 mb

Script developed by  Jim McMurry - jmcmurry@mwt.net Adapted for the template by  Wim van der Kuil - Leuven-Template.eu

You find our weather info also at:

European Weather Network

Weather Underground

Equipment we use:

Weather-station
Davis Vue

Weather-program
Meteohub

Weather-server
Raspberry PI 2 B+

Provider
1 and 1

Davis Vue

Meteohub

Raspberry PI 2 B+

1 and 1